« Back
NWS Peachtree City, Ga » Text Product » AHN Terminal Aerodrome Forecast


Printer-friendly Version
Current Version              Previous Versions:   1  2  3  4  5  6  7  8  9  

Terminal Aerodrome Forecast

751
FTUS42 KFFC 170900 AAA
TAFAHN
TAF AMD
KAHN 170935Z 1710/1806 33004KT P6SM SCT090
     FM171600 32008KT P6SM SCT040
     FM180100 30003KT P6SM SKC=

USA.gov is the U.S. government's official web portal to all federal, state and local government web resources and services.